Time;durP1;ratioP1;P1;durP2;ratioP2;P2;SDS_P1;SDS_P2;PMS_P1;PMS_P2;Temp;Humidity;BMP_temperature;BMP_pressure;BME280_temperature;BME280_humidity;BME280_pressure;Samples;Min_cycle;Max_cycle;Signal;HPM_P1;HPM_P2
2021/11/04 00:00:23;;;;;;;4.38;1.00;;;9.40;92.10;;;;;;6252731;28;20061;-82
2021/11/04 00:03:26;;;;;;;2.70;1.38;;;9.40;91.80;;;;;;6267465;28;20041;-83
2021/11/04 00:06:28;;;;;;;4.53;1.17;;;9.30;92.00;;;;;;6276569;28;20033;-83
2021/11/04 00:09:29;;;;;;;2.97;1.10;;;9.40;91.90;;;;;;6260045;28;20096;-84
2021/11/04 00:12:31;;;;;;;4.38;1.08;;;9.40;92.10;;;;;;6256443;28;20046;-83
2021/11/04 00:15:33;;;;;;;5.05;1.10;;;9.40;92.20;;;;;;6260693;28;20045;-84
2021/11/04 00:18:37;;;;;;;1.52;1.27;;;9.30;91.90;;;;;;6261247;28;20053;-84
2021/11/04 00:21:39;;;;;;;1.80;0.95;;;9.30;91.90;;;;;;6261933;28;20045;-84
2021/11/04 00:24:41;;;;;;;6.72;1.20;;;9.30;92.10;;;;;;6259587;28;20050;-83
2021/11/04 00:27:43;;;;;;;4.45;1.35;;;9.20;91.90;;;;;;6258994;28;20144;-83
2021/11/04 00:30:45;;;;;;;1.83;0.82;;;9.10;92.00;;;;;;6259349;28;20049;-83
2021/11/04 00:33:51;;;;;;;2.60;0.80;;;9.00;92.00;;;;;;6258638;28;20060;-83
2021/11/04 00:36:53;;;;;;;2.38;1.08;;;9.00;92.10;;;;;;6257406;28;20045;-83
2021/11/04 00:39:55;;;;;;;1.65;0.80;;;8.90;92.30;;;;;;6257192;28;20116;-82
2021/11/04 00:42:57;;;;;;;2.85;1.17;;;9.00;92.30;;;;;;6258844;28;20056;-82
2021/11/04 00:45:59;;;;;;;3.65;1.63;;;9.00;92.40;;;;;;6257511;28;20164;-83
2021/11/04 00:49:03;;;;;;;3.15;1.33;;;9.00;92.20;;;;;;6254956;28;20526;-83
2021/11/04 00:52:05;;;;;;;16.25;3.75;;;9.00;92.30;;;;;;6254323;28;20105;-82
2021/11/04 00:55:09;;;;;;;7.05;1.83;;;9.00;92.10;;;;;;6256502;28;20467;-81
2021/11/04 00:58:11;;;;;;;9.52;1.80;;;9.00;92.40;;;;;;6258758;28;20052;-82
2021/11/04 01:01:13;;;;;;;5.68;1.95;;;9.00;92.30;;;;;;6257923;28;20081;-81
2021/11/04 01:04:16;;;;;;;3.80;1.90;;;9.00;92.20;;;;;;6256625;28;20565;-82
2021/11/04 01:07:18;;;;;;;3.15;2.00;;;9.00;92.10;;;;;;6254375;28;20049;-82
2021/11/04 01:10:19;;;;;;;5.63;2.08;;;8.90;92.10;;;;;;6254460;28;20049;-81
2021/11/04 01:13:22;;;;;;;8.18;2.75;;;8.90;92.10;;;;;;6254452;28;20051;-81
2021/11/04 01:16:24;;;;;;;4.70;1.52;;;8.90;92.10;;;;;;6256632;28;20041;-81
2021/11/04 01:19:27;;;;;;;5.28;2.42;;;8.90;92.40;;;;;;6256583;28;20056;-82
2021/11/04 01:22:29;;;;;;;6.97;3.15;;;8.80;92.20;;;;;;6257490;28;20087;-83
2021/11/04 01:25:31;;;;;;;8.10;2.50;;;8.80;92.30;;;;;;6257578;28;20049;-83
2021/11/04 01:28:33;;;;;;;6.05;2.63;;;8.80;92.40;;;;;;6259253;28;20049;-83
2021/11/04 01:31:35;;;;;;;10.70;2.97;;;8.80;92.50;;;;;;6270261;28;20073;-81
2021/11/04 01:34:38;;;;;;;7.22;2.47;;;8.80;92.40;;;;;;6255197;28;20053;-82
2021/11/04 01:37:40;;;;;;;4.88;2.85;;;8.70;92.40;;;;;;6253947;28;20511;-83
2021/11/04 01:40:42;;;;;;;6.40;3.13;;;8.80;92.70;;;;;;6252559;28;20049;-82
2021/11/04 01:43:44;;;;;;;5.60;3.42;;;8.90;92.70;;;;;;6253573;28;20045;-82
2021/11/04 01:46:46;;;;;;;5.78;3.03;;;8.90;92.40;;;;;;6254201;28;20422;-81
2021/11/04 01:49:49;;;;;;;4.65;2.80;;;8.90;92.70;;;;;;6253706;28;20049;-82
2021/11/04 01:52:52;;;;;;;5.85;3.58;;;8.90;92.60;;;;;;6254333;28;20052;-83
2021/11/04 01:55:53;;;;;;;4.97;2.92;;;8.80;92.50;;;;;;6253667;28;20125;-81
2021/11/04 01:58:55;;;;;;;7.40;3.45;;;8.90;92.50;;;;;;6254063;28;20069;-81
2021/11/04 02:02:05;;;;;;;5.78;3.40;;;8.90;92.30;;;;;;6253682;28;20600;-83
2021/11/04 02:05:10;;;;;;;5.78;2.95;;;8.90;92.60;;;;;;6254828;28;20112;-83
2021/11/04 02:08:19;;;;;;;8.75;3.60;;;8.90;92.40;;;;;;6254171;28;20097;-82
2021/11/04 02:11:23;;;;;;;8.23;3.63;;;8.80;92.40;;;;;;6251862;28;20049;-83
2021/11/04 02:14:30;;;;;;;8.05;3.30;;;8.80;92.50;;;;;;6253724;28;20045;-84
2021/11/04 02:17:32;;;;;;;6.28;3.25;;;8.80;92.50;;;;;;6252699;28;20045;-83
2021/11/04 02:20:46;;;;;;;7.60;3.95;;;8.80;92.50;;;;;;6252251;28;20049;-83
2021/11/04 02:23:53;;;;;;;7.90;3.75;;;8.70;92.30;;;;;;6251881;28;20124;-83
2021/11/04 02:26:59;;;;;;;9.43;3.20;;;8.70;92.20;;;;;;6252477;28;20056;-83
2021/11/04 02:30:03;;;;;;;6.55;3.75;;;8.60;92.30;;;;;;6251644;28;20051;-83
2021/11/04 02:45:56;;;;;;;8.30;4.40;;;8.60;92.50;;;;;;6195450;28;20084;-83
2021/11/04 02:49:22;;;;;;;5.90;3.55;;;8.60;92.60;;;;;;6178805;28;20050;-83
2021/11/04 02:52:26;;;;;;;10.73;4.38;;;8.70;92.70;;;;;;6180287;28;20039;-84
2021/11/04 03:07:14;;;;;;;7.40;4.28;;;8.70;92.40;;;;;;6042015;29;20190;-84
2021/11/04 03:10:16;;;;;;;6.35;3.80;;;8.70;92.20;;;;;;6157588;28;20142;-84
2021/11/04 03:13:18;;;;;;;8.27;4.43;;;8.60;92.50;;;;;;6176587;28;20051;-84
2021/11/04 03:16:22;;;;;;;7.93;4.32;;;8.60;92.60;;;;;;6176931;28;20510;-84
2021/11/04 03:19:26;;;;;;;8.95;5.05;;;8.60;92.50;;;;;;6175895;28;20063;-83
2021/11/04 03:22:28;;;;;;;8.18;4.43;;;8.70;92.60;;;;;;6177067;28;20057;-84
2021/11/04 03:25:30;;;;;;;9.48;5.47;;;8.70;92.60;;;;;;6179093;28;20090;-84
2021/11/04 03:28:33;;;;;;;8.85;4.43;;;8.70;92.70;;;;;;6181286;28;20051;-82
2021/11/04 03:31:37;;;;;;;9.88;5.15;;;8.70;92.50;;;;;;6182156;28;20055;-83
2021/11/04 03:34:40;;;;;;;11.98;5.28;;;8.60;92.50;;;;;;6193018;28;20066;-81
2021/11/04 03:37:46;;;;;;;10.50;4.63;;;8.60;92.70;;;;;;6203486;28;20041;-82
2021/11/04 03:40:48;;;;;;;11.88;5.82;;;8.70;92.70;;;;;;6191123;28;20050;-84
2021/11/04 03:43:51;;;;;;;10.43;5.05;;;8.70;92.70;;;;;;6186656;28;20125;-84
2021/11/04 03:46:55;;;;;;;11.10;5.03;;;8.70;92.70;;;;;;6188120;28;20106;-85
2021/11/04 03:49:59;;;;;;;8.95;5.22;;;8.70;93.10;;;;;;6185825;28;20043;-84
2021/11/04 03:53:01;;;;;;;11.40;4.95;;;8.80;92.90;;;;;;6189273;28;20106;-84
2021/11/04 03:56:03;;;;;;;8.43;4.53;;;8.80;92.60;;;;;;6189049;28;20067;-83
2021/11/04 03:59:05;;;;;;;12.40;5.13;;;8.70;92.60;;;;;;6186755;28;20410;-83
2021/11/04 04:02:09;;;;;;;10.82;4.68;;;8.70;92.50;;;;;;6185896;28;20053;-83
2021/11/04 04:05:12;;;;;;;9.52;4.82;;;8.60;92.60;;;;;;6185391;28;20051;-83
2021/11/04 04:08:14;;;;;;;7.25;4.32;;;8.60;92.90;;;;;;6185127;28;20126;-83
2021/11/04 04:11:16;;;;;;;9.95;5.00;;;8.60;93.00;;;;;;6185164;28;20054;-84
2021/11/04 04:14:18;;;;;;;7.90;4.00;;;8.60;92.70;;;;;;6185668;28;20046;-83
2021/11/04 04:17:21;;;;;;;9.60;4.40;;;8.60;92.80;;;;;;6163202;28;20564;-84
2021/11/04 04:20:26;;;;;;;7.05;3.55;;;8.70;92.80;;;;;;6185182;28;20058;-80
2021/11/04 04:23:27;;;;;;;6.50;3.53;;;8.60;92.70;;;;;;6182956;28;20516;-83
2021/11/04 04:26:29;;;;;;;7.35;4.20;;;8.60;92.50;;;;;;6183232;28;20051;-82
2021/11/04 04:29:31;;;;;;;6.90;3.38;;;8.50;92.40;;;;;;6184754;28;20054;-81
2021/11/04 04:32:33;;;;;;;5.53;3.85;;;8.50;92.60;;;;;;6183177;28;20039;-82
2021/11/04 04:35:36;;;;;;;6.50;3.17;;;8.50;92.70;;;;;;6183619;28;20106;-81
2021/11/04 04:38:38;;;;;;;11.68;3.90;;;8.50;92.50;;;;;;6182873;28;20054;-80
2021/11/04 04:41:39;;;;;;;9.30;5.03;;;8.50;92.50;;;;;;6182726;28;20039;-81
2021/11/04 04:44:41;;;;;;;8.07;4.32;;;8.40;92.40;;;;;;6182328;28;20042;-82
2021/11/04 04:47:44;;;;;;;9.00;5.18;;;8.40;92.60;;;;;;6181663;28;20528;-82
2021/11/04 04:50:47;;;;;;;7.90;4.43;;;8.40;92.70;;;;;;6181743;28;20656;-81
2021/11/04 04:53:49;;;;;;;10.38;4.45;;;8.30;92.50;;;;;;6181539;28;20061;-81
2021/11/04 04:56:50;;;;;;;6.28;3.83;;;8.30;92.80;;;;;;6182070;28;20061;-82
2021/11/04 04:59:55;;;;;;;8.18;4.20;;;8.30;92.90;;;;;;6180306;28;20427;-82
2021/11/04 05:02:57;;;;;;;6.85;3.92;;;8.30;92.90;;;;;;6181592;28;20047;-80
2021/11/04 05:06:00;;;;;;;7.32;4.47;;;8.30;92.80;;;;;;6180173;28;20050;-83
2021/11/04 05:09:02;;;;;;;6.13;3.42;;;8.30;92.90;;;;;;6181489;28;20185;-82
2021/11/04 05:12:04;;;;;;;5.85;3.78;;;8.30;93.00;;;;;;6181367;28;20046;-83
2021/11/04 05:15:07;;;;;;;10.95;3.50;;;8.30;93.00;;;;;;6182640;28;20130;-81
2021/11/04 05:18:09;;;;;;;6.03;3.08;;;8.30;92.90;;;;;;6179711;28;20129;-83
2021/11/04 05:21:12;;;;;;;6.38;3.72;;;8.40;92.90;;;;;;6178488;28;20124;-82
2021/11/04 05:24:14;;;;;;;8.13;4.40;;;8.40;92.80;;;;;;6181408;28;20125;-83
2021/11/04 05:27:16;;;;;;;10.65;4.45;;;8.40;92.80;;;;;;6182190;28;20154;-82
2021/11/04 05:30:19;;;;;;;9.32;4.47;;;8.30;92.70;;;;;;6179805;28;20051;-83
2021/11/04 05:33:21;;;;;;;8.18;4.40;;;8.30;92.80;;;;;;6179513;28;20519;-82
2021/11/04 05:36:25;;;;;;;8.70;3.70;;;8.30;92.70;;;;;;6179685;28;20050;-82
2021/11/04 05:39:27;;;;;;;10.63;4.03;;;8.20;92.70;;;;;;6179525;28;20062;-82
2021/11/04 05:42:28;;;;;;;5.45;2.78;;;8.20;92.70;;;;;;6180147;28;20055;-82
2021/11/04 05:45:30;;;;;;;8.45;3.90;;;8.20;92.70;;;;;;6180530;28;20524;-83
2021/11/04 05:48:32;;;;;;;8.40;3.72;;;8.20;92.90;;;;;;6179738;28;20162;-83
2021/11/04 05:51:35;;;;;;;7.75;4.22;;;8.20;92.90;;;;;;6179028;28;20511;-81
2021/11/04 05:54:38;;;;;;;6.90;4.05;;;8.20;92.70;;;;;;6179725;28;20205;-82
2021/11/04 05:57:39;;;;;;;9.82;3.90;;;8.20;92.80;;;;;;6187862;28;20424;-83
2021/11/04 06:00:42;;;;;;;8.52;4.15;;;8.20;92.80;;;;;;6193565;28;20106;-83
2021/11/04 06:03:44;;;;;;;7.60;4.40;;;8.20;92.80;;;;;;6185136;28;20493;-84
2021/11/04 06:06:47;;;;;;;9.38;4.68;;;8.20;92.70;;;;;;6178401;28;20046;-82
2021/11/04 06:09:49;;;;;;;8.77;5.55;;;8.30;93.10;;;;;;6177552;28;20138;-83
2021/11/04 06:12:50;;;;;;;8.77;4.60;;;8.30;92.80;;;;;;6175137;28;20053;-82
2021/11/04 06:15:52;;;;;;;11.63;4.95;;;8.30;92.80;;;;;;6176529;28;20063;-82
2021/11/04 06:18:54;;;;;;;10.38;5.55;;;8.40;92.70;;;;;;6176028;28;20497;-84
2021/11/04 06:21:57;;;;;;;8.85;5.45;;;8.40;92.70;;;;;;6174994;28;20057;-82
2021/11/04 06:24:59;;;;;;;9.75;4.88;;;8.40;92.70;;;;;;6174800;28;20135;-82
2021/11/04 06:28:01;;;;;;;10.55;5.57;;;8.30;92.70;;;;;;6183406;28;20043;-82
2021/11/04 06:31:03;;;;;;;10.27;5.28;;;8.40;92.80;;;;;;6177878;28;20406;-82
2021/11/04 06:34:05;;;;;;;13.73;5.72;;;8.30;92.60;;;;;;6176529;28;20043;-83
2021/11/04 06:37:08;;;;;;;15.32;5.72;;;8.30;92.60;;;;;;6176293;28;20097;-83
2021/11/04 06:40:11;;;;;;;12.43;6.45;;;8.40;92.90;;;;;;6175788;28;20046;-84
2021/11/04 06:43:13;;;;;;;14.60;7.40;;;8.40;92.80;;;;;;6178352;28;20042;-82
2021/11/04 06:46:16;;;;;;;16.15;6.88;;;8.40;92.70;;;;;;6176511;28;20051;-82
2021/11/04 06:49:19;;;;;;;16.02;8.27;;;8.40;92.90;;;;;;6175340;28;20531;-84
2021/11/04 06:52:27;;;;;;;16.60;8.68;;;8.50;92.90;;;;;;6178318;28;20097;-83
2021/11/04 06:55:29;;;;;;;20.83;9.60;;;8.50;93.10;;;;;;6175356;28;20397;-83
2021/11/04 06:58:31;;;;;;;18.77;9.02;;;8.50;92.70;;;;;;6176005;28;20165;-83
2021/11/04 07:01:35;;;;;;;19.25;9.20;;;8.50;92.60;;;;;;6177871;28;20047;-84
2021/11/04 07:04:40;;;;;;;19.45;10.15;;;8.50;92.80;;;;;;6184932;28;20049;-84
2021/11/04 07:07:46;;;;;;;23.58;9.05;;;8.60;92.70;;;;;;6197862;28;20059;-81
2021/11/04 07:10:48;;;;;;;23.00;10.60;;;8.70;92.70;;;;;;6195293;28;20110;-82
2021/11/04 07:28:53;;;;;;;25.63;11.35;;;8.70;92.70;;;;;;6227272;28;20140;-81
2021/11/04 07:31:54;;;;;;;23.98;10.10;;;8.80;92.80;;;;;;6225140;28;20042;-83
2021/11/04 07:34:57;;;;;;;26.38;11.27;;;8.80;92.80;;;;;;6237180;28;20586;-84
2021/11/04 07:38:00;;;;;;;29.52;11.30;;;8.80;92.80;;;;;;6280098;28;20514;-83
2021/11/04 07:41:02;;;;;;;27.70;10.55;;;8.80;92.70;;;;;;6277025;28;20131;-83
2021/11/04 07:44:06;;;;;;;31.10;11.45;;;8.80;92.80;;;;;;6291478;28;20129;-83
2021/11/04 07:47:09;;;;;;;26.38;10.77;;;8.90;92.90;;;;;;6276958;28;20044;-83
2021/11/04 07:50:15;;;;;;;21.15;9.43;;;8.90;92.90;;;;;;6274177;28;20049;-82
2021/11/04 07:53:18;;;;;;;24.70;10.73;;;8.90;92.80;;;;;;6272624;28;20045;-85
2021/11/04 07:56:20;;;;;;;24.15;10.80;;;8.90;92.80;;;;;;6275063;28;20052;-84
2021/11/04 07:59:24;;;;;;;25.83;10.32;;;8.90;92.80;;;;;;6272465;28;20056;-83
2021/11/04 08:02:26;;;;;;;26.20;10.15;;;8.90;93.00;;;;;;6273452;28;20135;-83
2021/11/04 08:05:28;;;;;;;29.15;11.07;;;8.90;92.90;;;;;;6297346;23;20051;-84
2021/11/04 08:08:30;;;;;;;29.08;11.60;;;9.00;93.10;;;;;;6275756;28;20580;-81
2021/11/04 08:11:32;;;;;;;26.10;11.85;;;9.10;92.90;;;;;;6274800;28;20061;-84
2021/11/04 08:14:35;;;;;;;26.52;11.80;;;9.00;92.80;;;;;;6273737;28;20593;-84
2021/11/04 08:17:37;;;;;;;27.85;11.85;;;9.00;92.80;;;;;;6274749;28;20128;-81
2021/11/04 08:20:39;;;;;;;32.58;14.68;;;9.10;92.80;;;;;;6273138;28;20055;-83
2021/11/04 08:23:42;;;;;;;37.97;14.05;;;9.00;93.00;;;;;;6274289;28;20041;-81
2021/11/04 08:26:43;;;;;;;30.23;11.23;;;9.00;93.10;;;;;;6273967;28;20421;-82
2021/11/04 08:29:47;;;;;;;32.38;12.23;;;8.90;93.20;;;;;;6273776;28;20071;-81
2021/11/04 08:32:49;;;;;;;32.95;11.82;;;8.90;93.30;;;;;;6275109;28;20048;-82
2021/11/04 08:35:51;;;;;;;34.50;12.77;;;8.90;93.30;;;;;;6275541;28;20048;-83
2021/11/04 08:38:53;;;;;;;34.22;13.70;;;8.90;93.30;;;;;;6279789;28;20045;-83
2021/11/04 08:41:55;;;;;;;34.78;13.65;;;8.90;93.30;;;;;;6275577;28;20095;-82
2021/11/04 08:45:00;;;;;;;38.60;13.65;;;8.90;93.30;;;;;;6275946;28;20056;-83
2021/11/04 08:48:02;;;;;;;36.88;14.50;;;8.90;93.40;;;;;;6279638;28;20052;-81
2021/11/04 08:51:04;;;;;;;41.85;14.82;;;9.00;93.50;;;;;;6279252;28;20518;-81
2021/11/04 08:54:07;;;;;;;39.10;14.68;;;9.00;93.20;;;;;;6279234;28;20632;-80
2021/11/04 08:57:12;;;;;;;38.83;14.23;;;9.00;93.10;;;;;;6278929;28;20060;-81
2021/11/04 09:00:15;;;;;;;40.47;15.18;;;9.00;93.20;;;;;;6279486;28;20105;-83
2021/11/04 09:03:17;;;;;;;34.67;14.13;;;9.10;93.20;;;;;;6278288;28;20088;-82
2021/11/04 09:06:19;;;;;;;32.28;14.95;;;9.10;93.10;;;;;;6279046;28;20111;-82
2021/11/04 09:09:22;;;;;;;33.08;13.98;;;9.10;92.80;;;;;;6277044;28;20122;-81
2021/11/04 09:12:23;;;;;;;39.60;15.48;;;9.10;92.80;;;;;;6277967;28;20037;-82
2021/11/04 09:15:26;;;;;;;38.20;14.00;;;9.10;92.90;;;;;;6277859;28;20071;-81
2021/11/04 09:18:28;;;;;;;42.70;16.25;;;9.20;92.90;;;;;;6279544;28;20590;-81
2021/11/04 09:21:30;;;;;;;39.00;15.50;;;9.10;92.90;;;;;;6278043;28;20148;-80
2021/11/04 09:24:32;;;;;;;38.03;13.52;;;9.20;92.90;;;;;;6278377;28;20530;-83
2021/11/04 09:27:34;;;;;;;39.17;15.05;;;9.20;92.90;;;;;;6279609;28;20110;-82
2021/11/04 09:30:37;;;;;;;34.30;14.60;;;9.30;92.80;;;;;;6277712;28;20045;-81
2021/11/04 09:33:41;;;;;;;40.75;17.35;;;9.30;92.80;;;;;;6278152;28;20041;-80
2021/11/04 09:36:43;;;;;;;36.72;15.50;;;9.40;93.00;;;;;;6279608;28;20079;-82
2021/11/04 09:39:47;;;;;;;36.75;15.27;;;9.40;92.60;;;;;;6279321;28;20498;-83
2021/11/04 09:42:51;;;;;;;43.38;16.95;;;9.30;92.50;;;;;;6280451;28;20052;-82
2021/11/04 09:45:55;;;;;;;45.42;19.27;;;9.30;92.50;;;;;;6280711;28;20124;-82
2021/11/04 09:48:57;;;;;;;42.08;16.63;;;9.30;92.40;;;;;;6269942;28;20048;-83
2021/11/04 09:52:02;;;;;;;38.03;15.13;;;9.20;92.50;;;;;;6279574;28;20429;-82
2021/11/04 09:55:08;;;;;;;41.35;17.20;;;9.30;92.40;;;;;;6278982;28;20064;-82
2021/11/04 09:58:10;;;;;;;40.65;16.23;;;9.20;92.50;;;;;;6277357;28;20055;-83
2021/11/04 10:01:23;;;;;;;36.00;15.15;;;9.20;92.30;;;;;;6280469;28;20065;-83
2021/11/04 10:04:37;;;;;;;34.90;15.05;;;9.20;92.30;;;;;;6279318;28;20040;-81
2021/11/04 10:07:47;;;;;;;33.05;15.93;;;9.20;92.50;;;;;;6279207;28;20119;-80
2021/11/04 10:11:04;;;;;;;31.08;14.88;;;9.20;92.50;;;;;;6277928;28;20158;-81
2021/11/04 10:14:09;;;;;;;36.40;16.05;;;9.20;92.50;;;;;;6294448;28;20075;-82
2021/11/04 10:17:28;;;;;;;32.20;14.55;;;9.30;92.50;;;;;;6293865;28;20041;-82
2021/11/04 10:20:30;;;;;;;34.45;15.48;;;9.20;92.30;;;;;;6281447;28;20040;-83
2021/11/04 10:23:38;;;;;;;36.83;15.18;;;9.20;92.30;;;;;;6280302;28;20063;-83
2021/11/04 10:26:40;;;;;;;35.22;15.48;;;9.20;92.20;;;;;;6280291;28;20075;-83
2021/11/04 10:29:42;;;;;;;29.20;14.25;;;9.20;92.20;;;;;;6279290;28;20048;-83
2021/11/04 10:32:45;;;;;;;35.25;15.15;;;9.20;92.40;;;;;;6279550;28;20049;-83
2021/11/04 10:35:53;;;;;;;42.15;15.30;;;9.20;92.30;;;;;;6278700;28;20105;-81
2021/11/04 10:38:57;;;;;;;33.85;15.60;;;9.20;92.10;;;;;;6279581;28;20055;-82
2021/11/04 10:41:59;;;;;;;32.63;14.95;;;9.20;92.20;;;;;;6278717;28;20067;-82
2021/11/04 10:45:19;;;;;;;28.13;14.13;;;9.20;92.10;;;;;;6278500;28;20059;-82
2021/11/04 10:48:23;;;;;;;28.88;15.07;;;9.10;92.00;;;;;;6277904;28;20120;-83
2021/11/04 10:51:25;;;;;;;33.63;15.93;;;9.10;92.10;;;;;;6276734;28;20045;-83
2021/11/04 10:54:27;;;;;;;30.02;14.73;;;9.10;92.40;;;;;;6277382;28;20415;-83
2021/11/04 10:57:36;;;;;;;32.08;14.73;;;9.20;92.20;;;;;;6276600;28;20533;-83
2021/11/04 11:00:39;;;;;;;31.02;14.23;;;9.20;92.10;;;;;;6276370;28;20057;-83
2021/11/04 11:03:52;;;;;;;26.58;13.90;;;9.20;92.10;;;;;;6278068;28;20414;-81
2021/11/04 11:06:56;;;;;;;28.08;14.30;;;9.20;92.20;;;;;;6278033;28;20072;-81
2021/11/04 11:09:58;;;;;;;25.20;13.07;;;9.30;91.90;;;;;;6275934;28;20517;-83
2021/11/04 11:13:00;;;;;;;24.95;13.05;;;9.30;91.70;;;;;;6277943;28;20069;-83
2021/11/04 11:16:05;;;;;;;24.52;12.82;;;9.30;91.70;;;;;;6276813;28;20083;-83
2021/11/04 11:19:09;;;;;;;23.00;12.10;;;9.30;91.60;;;;;;6277148;28;20122;-82
2021/11/04 11:22:14;;;;;;;25.15;12.93;;;9.40;91.60;;;;;;6276014;28;20045;-81
2021/11/04 11:25:16;;;;;;;22.13;11.75;;;9.40;91.50;;;;;;6277130;28;20098;-82
2021/11/04 11:28:19;;;;;;;24.17;13.15;;;9.30;91.60;;;;;;6277287;28;20069;-81
2021/11/04 11:31:25;;;;;;;21.30;12.10;;;9.40;91.60;;;;;;6276207;28;20059;-82
2021/11/04 11:34:29;;;;;;;21.75;12.02;;;9.50;91.50;;;;;;6278479;28;20108;-83
2021/11/04 11:37:30;;;;;;;22.63;12.07;;;9.60;91.20;;;;;;6280133;28;20041;-83
2021/11/04 11:40:34;;;;;;;22.83;11.98;;;9.60;90.90;;;;;;6279772;28;20041;-83
2021/11/04 11:43:51;;;;;;;18.88;11.20;;;9.60;90.90;;;;;;6278842;28;20056;-81
2021/11/04 11:47:02;;;;;;;20.13;12.50;;;9.60;91.10;;;;;;6280178;28;20052;-83
2021/11/04 11:50:21;;;;;;;23.42;12.88;;;9.60;91.10;;;;;;6279186;28;20044;-84
2021/11/04 11:53:25;;;;;;;21.95;12.93;;;9.60;90.90;;;;;;6280645;28;20076;-83
2021/11/04 11:56:27;;;;;;;22.33;12.38;;;9.60;90.90;;;;;;6278426;28;20521;-83
2021/11/04 11:59:28;;;;;;;19.52;11.02;;;9.60;91.20;;;;;;6277664;28;20049;-82
2021/11/04 12:02:42;;;;;;;24.98;12.00;;;9.60;91.20;;;;;;6278844;28;20053;-84
2021/11/04 12:05:45;;;;;;;22.13;13.02;;;9.70;91.00;;;;;;6275674;28;20041;-84
2021/11/04 12:08:48;;;;;;;21.77;11.00;;;9.60;91.10;;;;;;6278621;28;20128;-82
2021/11/04 12:11:50;;;;;;;28.50;12.20;;;9.70;91.20;;;;;;6283782;28;20565;-80
2021/11/04 12:15:00;;;;;;;25.98;12.75;;;9.80;91.00;;;;;;6282093;28;20123;-83
2021/11/04 12:18:16;;;;;;;20.42;11.32;;;9.80;90.90;;;;;;6282556;28;20052;-85
2021/11/04 12:21:21;;;;;;;20.27;11.52;;;9.80;91.00;;;;;;6284340;28;20565;-84
2021/11/04 12:24:23;;;;;;;24.88;12.93;;;9.80;91.00;;;;;;6282778;28;20037;-81
2021/11/04 12:27:26;;;;;;;27.30;13.32;;;9.90;91.10;;;;;;6283176;28;20521;-84
2021/11/04 12:30:28;;;;;;;20.35;12.40;;;9.90;90.50;;;;;;6284300;28;20060;-81
2021/11/04 12:33:34;;;;;;;25.30;13.52;;;9.80;90.70;;;;;;6282782;28;20098;-82
2021/11/04 12:36:43;;;;;;;19.15;11.15;;;9.90;91.00;;;;;;6282852;28;20053;-81
2021/11/04 12:39:45;;;;;;;24.38;14.50;;;10.10;91.00;;;;;;6280492;28;20144;-81
2021/11/04 12:42:47;;;;;;;16.77;11.27;;;10.10;90.50;;;;;;6280702;28;20085;-82
2021/11/04 12:45:49;;;;;;;24.73;13.10;;;10.20;90.90;;;;;;6279806;28;20532;-82
2021/11/04 12:48:53;;;;;;;20.58;12.65;;;10.30;90.60;;;;;;6278382;28;20506;-82
2021/11/04 12:51:58;;;;;;;29.00;15.20;;;10.50;90.10;;;;;;6278663;28;20128;-84
2021/11/04 12:55:00;;;;;;;16.25;10.25;;;10.50;90.50;;;;;;6279131;28;20410;-83
2021/11/04 12:58:05;;;;;;;17.83;12.30;;;10.60;89.30;;;;;;6271519;28;20112;-83
2021/11/04 13:01:07;;;;;;;25.17;14.95;;;10.50;89.30;;;;;;6263774;28;20045;-82
2021/11/04 13:04:23;;;;;;;20.30;10.77;;;10.50;89.60;;;;;;6253498;28;20095;-82
2021/11/04 13:07:27;;;;;;;29.30;12.63;;;10.60;89.30;;;;;;6255226;28;20067;-84
2021/11/04 13:10:30;;;;;;;16.42;10.25;;;10.60;89.40;;;;;;6253299;28;20056;-82
2021/11/04 13:13:32;;;;;;;17.80;9.82;;;10.80;89.20;;;;;;6270850;28;20112;-82
2021/11/04 13:16:35;;;;;;;19.60;11.30;;;10.90;89.20;;;;;;6277710;28;20052;-81
2021/11/04 13:19:37;;;;;;;18.60;11.45;;;10.90;89.00;;;;;;6277321;28;20419;-82
2021/11/04 13:22:43;;;;;;;21.27;11.68;;;10.90;88.60;;;;;;6277536;28;20052;-81
2021/11/04 13:25:47;;;;;;;20.70;11.35;;;10.80;89.10;;;;;;6278359;28;20409;-81
2021/11/04 13:28:49;;;;;;;14.90;9.43;;;11.00;88.70;;;;;;6277251;28;20758;-81
2021/11/04 13:31:51;;;;;;;18.92;9.93;;;11.00;88.60;;;;;;6276841;28;20045;-82
2021/11/04 13:34:53;;;;;;;17.73;10.30;;;11.00;88.30;;;;;;6279649;28;20045;-83
2021/11/04 13:38:11;;;;;;;15.68;9.70;;;11.10;87.40;;;;;;6280124;28;20048;-80
2021/11/04 13:41:12;;;;;;;15.02;9.27;;;11.10;86.60;;;;;;6278454;28;20045;-81
2021/11/04 13:44:19;;;;;;;13.15;9.00;;;11.10;87.60;;;;;;6278005;28;20120;-82
2021/11/04 13:47:33;;;;;;;24.90;14.75;;;11.10;86.80;;;;;;6279437;28;20433;-82
2021/11/04 13:50:37;;;;;;;19.45;10.15;;;11.10;86.70;;;;;;6279312;28;20049;-80
2021/11/04 13:53:40;;;;;;;15.65;8.13;;;11.10;86.60;;;;;;6278188;28;20040;-83
2021/11/04 13:56:44;;;;;;;18.98;10.43;;;11.20;86.50;;;;;;6280652;28;20103;-83
2021/11/04 13:59:53;;;;;;;14.40;9.32;;;11.20;86.30;;;;;;6276887;28;20045;-82
2021/11/04 14:02:57;;;;;;;15.75;9.38;;;11.20;86.70;;;;;;6272857;28;20438;-81
2021/11/04 14:06:01;;;;;;;15.68;7.78;;;11.30;86.40;;;;;;6286573;28;20037;-80
2021/11/04 14:09:04;;;;;;;13.52;8.32;;;11.30;85.80;;;;;;6286434;28;20051;-80
2021/11/04 14:12:08;;;;;;;14.80;7.50;;;11.30;85.80;;;;;;6280228;28;20064;-80
2021/11/04 14:15:12;;;;;;;12.85;7.40;;;11.30;85.00;;;;;;6282984;28;20045;-83
2021/11/04 14:18:21;;;;;;;14.43;5.95;;;11.30;84.80;;;;;;6288156;28;20045;-81
2021/11/04 14:21:25;;;;;;;10.93;7.15;;;11.30;84.80;;;;;;6284680;28;20076;-83
2021/11/04 14:24:29;;;;;;;11.18;6.45;;;11.20;85.20;;;;;;6284229;28;20478;-81
2021/11/04 14:27:31;;;;;;;9.25;5.38;;;11.20;85.10;;;;;;6282313;28;20053;-81
2021/11/04 14:30:34;;;;;;;14.70;5.30;;;11.20;84.70;;;;;;6282853;28;20077;-83
2021/11/04 14:33:36;;;;;;;9.35;4.38;;;11.20;83.90;;;;;;6281498;28;20167;-81
2021/11/04 14:36:38;;;;;;;8.13;4.38;;;11.20;84.10;;;;;;6272658;28;20044;-80
2021/11/04 14:39:41;;;;;;;4.70;3.78;;;11.00;83.60;;;;;;6280045;28;20047;-80
2021/11/04 14:42:43;;;;;;;7.93;5.10;;;10.90;83.40;;;;;;6280081;28;20083;-83
2021/11/04 14:45:45;;;;;;;8.75;3.95;;;10.80;83.80;;;;;;6275832;28;20044;-81
2021/11/04 14:48:47;;;;;;;7.45;3.30;;;10.80;85.20;;;;;;6275341;28;20055;-82
2021/11/04 14:51:49;;;;;;;6.68;4.22;;;10.80;85.50;;;;;;6281445;28;20045;-83
2021/11/04 14:54:52;;;;;;;9.25;4.28;;;10.90;86.80;;;;;;6282097;28;20139;-81
2021/11/04 14:57:54;;;;;;;11.75;4.35;;;10.90;85.40;;;;;;6282356;28;20575;-81
2021/11/04 15:00:56;;;;;;;10.30;5.82;;;10.90;85.70;;;;;;6275436;28;20096;-81
2021/11/04 15:03:59;;;;;;;7.63;4.25;;;10.80;85.10;;;;;;6271074;28;20036;-81
2021/11/04 15:07:00;;;;;;;7.60;4.63;;;10.70;85.60;;;;;;6284574;28;20059;-80
2021/11/04 15:10:04;;;;;;;8.18;4.57;;;10.60;86.90;;;;;;6285893;28;20059;-79
2021/11/04 15:13:06;;;;;;;9.18;4.18;;;10.50;87.80;;;;;;6283272;28;20112;-79
2021/11/04 15:16:10;;;;;;;8.38;4.45;;;10.50;87.70;;;;;;6284848;28;20044;-81
2021/11/04 15:19:13;;;;;;;9.00;4.43;;;10.50;88.50;;;;;;6283641;28;20513;-80
2021/11/04 15:22:15;;;;;;;7.13;4.85;;;10.60;88.90;;;;;;6283176;28;20045;-82
2021/11/04 15:25:18;;;;;;;10.73;4.53;;;10.60;89.40;;;;;;6283419;28;20123;-82
2021/11/04 15:28:20;;;;;;;6.47;5.05;;;10.50;88.80;;;;;;6282299;28;20522;-79
2021/11/04 15:31:22;;;;;;;8.75;4.55;;;10.50;90.00;;;;;;6282237;28;20049;-79
2021/11/04 15:34:24;;;;;;;11.93;5.10;;;10.40;90.10;;;;;;6283987;28;20052;-81
2021/11/04 15:37:26;;;;;;;11.38;4.82;;;10.40;90.10;;;;;;6288229;28;20051;-80
2021/11/04 15:40:29;;;;;;;9.70;5.18;;;10.40;90.10;;;;;;6283899;28;20060;-80
2021/11/04 15:43:31;;;;;;;7.10;4.15;;;10.40;90.10;;;;;;6284544;28;20049;-80
2021/11/04 15:46:33;;;;;;;9.90;5.05;;;10.30;90.20;;;;;;6285831;28;20055;-79
2021/11/04 15:49:36;;;;;;;5.88;4.43;;;10.30;90.30;;;;;;6287051;28;20044;-79
2021/11/04 15:52:39;;;;;;;8.93;4.63;;;10.20;90.20;;;;;;6285504;28;20052;-80
2021/11/04 15:55:42;;;;;;;7.50;4.35;;;10.20;90.30;;;;;;6284610;28;20044;-81
2021/11/04 15:58:44;;;;;;;7.53;3.80;;;10.10;90.40;;;;;;6284287;28;20048;-80
2021/11/04 16:01:45;;;;;;;8.30;4.63;;;10.00;90.40;;;;;;6284676;28;20494;-82
2021/11/04 16:04:47;;;;;;;7.32;4.13;;;10.00;90.60;;;;;;6267990;28;20095;-83
2021/11/04 16:07:49;;;;;;;8.90;3.83;;;10.00;90.50;;;;;;6260567;28;20065;-83
2021/11/04 16:10:52;;;;;;;5.18;2.88;;;10.00;90.40;;;;;;6262855;28;20129;-81
2021/11/04 16:13:54;;;;;;;6.07;3.30;;;9.90;90.20;;;;;;6282675;28;20139;-84
2021/11/04 16:20:23;;;;;;;2.72;2.10;;;9.90;90.00;;;;;;6272738;28;20040;-80
2021/11/04 16:23:25;;;;;;;4.50;2.55;;;9.80;90.10;;;;;;6285883;28;20080;-84
2021/11/04 16:26:28;;;;;;;5.40;2.85;;;9.80;89.90;;;;;;6288629;28;20083;-83
2021/11/04 16:29:30;;;;;;;4.25;2.65;;;9.80;90.10;;;;;;6287040;28;20126;-84
2021/11/04 16:32:32;;;;;;;5.63;2.40;;;9.80;90.00;;;;;;6285355;28;20076;-82
2021/11/04 16:35:40;;;;;;;4.38;3.13;;;9.80;89.90;;;;;;6497761;23;20599;-82